createdAt,value
2023-02-27T00:22:36.014Z,510.00
2023-02-27T00:23:35.981Z,509.00
2023-02-27T00:24:36.020Z,510.00
2023-02-27T00:25:36.030Z,505.00
2023-02-27T00:26:36.085Z,517.00
2023-02-27T00:27:36.125Z,508.00
2023-02-27T00:28:36.170Z,505.00
2023-02-27T00:29:36.267Z,507.00
2023-02-27T00:30:36.252Z,508.00
2023-02-27T00:31:36.359Z,506.00
2023-02-27T00:32:36.363Z,509.00
2023-02-27T00:33:36.325Z,506.00
2023-02-27T00:34:36.395Z,511.00
2023-02-27T00:35:36.463Z,507.00
2023-02-27T00:36:36.497Z,517.00
2023-02-27T00:37:36.586Z,510.00
2023-02-27T00:38:36.585Z,512.00
2023-02-27T00:39:37.404Z,514.00
2023-02-27T00:40:36.692Z,512.00
2023-02-27T00:41:36.725Z,506.00
2023-02-27T00:42:36.911Z,511.00
2023-02-27T00:43:36.780Z,504.00
2023-02-27T00:44:36.845Z,506.00
2023-02-27T00:45:36.916Z,515.00
2023-02-27T00:46:37.076Z,511.00
2023-02-27T00:47:36.984Z,505.00
2023-02-27T00:48:37.112Z,515.00
2023-02-27T00:49:37.066Z,510.00
2023-02-27T00:50:37.097Z,510.00
2023-02-27T00:51:37.128Z,510.00
2023-02-27T00:52:37.187Z,508.00
2023-02-27T00:53:37.231Z,506.00
2023-02-27T00:54:37.291Z,508.00
2023-02-27T00:55:37.403Z,511.00
2023-02-27T00:56:37.426Z,503.00
2023-02-27T00:57:37.531Z,509.00
2023-02-27T00:58:37.570Z,516.00
2023-02-27T00:59:37.637Z,508.00
2023-02-27T01:00:37.737Z,511.00
2023-02-27T01:01:37.775Z,506.00
2023-02-27T01:02:37.873Z,508.00
2023-02-27T01:03:37.948Z,504.00
2023-02-27T01:04:38.017Z,508.00
2023-02-27T01:05:38.099Z,503.00
2023-02-27T01:06:38.189Z,504.00
2023-02-27T01:07:38.197Z,507.00
2023-02-27T01:08:38.238Z,508.00
2023-02-27T01:09:38.268Z,510.00
2023-02-27T01:10:38.335Z,508.00
2023-02-27T01:11:38.391Z,509.00
2023-02-27T01:12:38.462Z,505.00
2023-02-27T01:13:38.536Z,514.00
2023-02-27T01:14:38.643Z,508.00
2023-02-27T01:15:38.703Z,515.00
2023-02-27T01:16:38.810Z,513.00
2023-02-27T01:17:38.873Z,505.00
2023-02-27T01:18:39.047Z,511.00
2023-02-27T01:19:39.055Z,500.00
2023-02-27T01:20:39.143Z,511.00
2023-02-27T01:21:39.225Z,504.00
2023-02-27T01:22:39.320Z,511.00
2023-02-27T01:23:39.394Z,514.00
2023-02-27T01:24:40.422Z,509.00
2023-02-27T01:25:39.546Z,507.00
2023-02-27T01:26:39.633Z,507.00
2023-02-27T01:27:39.727Z,507.00
2023-02-27T01:28:39.930Z,512.00
2023-02-27T01:29:39.885Z,515.00
2023-02-27T03:13:45.961Z,507.00
2023-02-27T03:14:46.059Z,514.00
2023-02-27T03:15:46.070Z,516.00
2023-02-27T03:16:46.098Z,514.00
2023-02-27T03:17:46.157Z,505.00
2023-02-27T03:18:46.228Z,511.00
2023-02-27T03:19:46.264Z,512.00
2023-02-27T03:20:46.314Z,511.00
2023-02-27T03:21:46.363Z,512.00
2023-02-27T03:22:46.415Z,512.00
2023-02-27T03:23:46.473Z,509.00
2023-02-27T03:24:46.508Z,506.00
2023-02-27T03:25:46.555Z,511.00
2023-02-27T03:26:46.605Z,512.00
2023-02-27T03:27:46.662Z,517.00
2023-02-27T03:28:46.707Z,509.00
2023-02-27T03:29:46.757Z,513.00
2023-02-27T03:30:46.895Z,517.00
2023-02-27T03:31:47.056Z,514.00
2023-02-27T03:32:46.907Z,509.00
2023-02-27T03:33:46.969Z,512.00
2023-02-27T03:34:47.020Z,514.00
2023-02-27T03:35:47.056Z,511.00
2023-02-27T03:36:47.111Z,512.00
2023-02-27T03:37:47.149Z,512.00
2023-02-27T03:38:47.195Z,511.00
2023-02-27T03:39:47.308Z,511.00
2023-02-27T03:40:47.293Z,513.00
2023-02-27T03:41:47.342Z,509.00
2023-02-27T03:42:47.381Z,514.00
2023-02-27T03:43:47.422Z,512.00
2023-02-27T03:44:47.466Z,508.00
2023-02-27T03:45:47.526Z,510.00
2023-02-27T03:46:47.562Z,502.00
2023-02-27T03:47:47.654Z,510.00
2023-02-27T03:48:47.724Z,515.00
2023-02-27T03:49:48.456Z,518.00
2023-02-27T03:50:47.768Z,511.00
2023-02-27T03:51:48.462Z,507.00
2023-02-27T03:52:47.842Z,514.00
2023-02-27T03:53:47.886Z,518.00
2023-02-27T03:54:47.933Z,505.00
2023-02-27T03:55:47.986Z,508.00
2023-02-27T03:56:48.032Z,504.00
2023-02-27T03:57:48.086Z,517.00
2023-02-27T03:58:48.131Z,513.00
2023-02-27T03:59:48.190Z,509.00
2023-02-27T04:00:48.245Z,504.00
2023-02-27T04:01:48.283Z,512.00
2023-02-27T04:02:48.343Z,503.00
2023-02-27T04:03:48.370Z,508.00
2023-02-27T04:04:48.418Z,513.00
2023-02-27T04:05:48.467Z,514.00
2023-02-27T04:06:48.500Z,513.00
2023-02-27T04:07:48.542Z,508.00
2023-02-27T04:08:48.607Z,511.00
2023-02-27T04:09:48.639Z,518.00
2023-02-27T04:10:48.787Z,519.00
2023-02-27T04:11:48.743Z,508.00
2023-02-27T04:12:48.784Z,512.00
2023-02-27T04:13:48.828Z,512.00
2023-02-27T04:14:48.884Z,507.00
2023-02-27T04:15:48.947Z,514.00
2023-02-27T04:16:48.985Z,515.00
2023-02-27T04:17:49.019Z,510.00
2023-02-27T04:18:49.056Z,506.00
2023-02-27T04:19:49.104Z,514.00
2023-02-27T04:20:49.144Z,505.00
2023-02-27T04:21:49.203Z,511.00
2023-02-27T04:22:49.243Z,513.00
2023-02-27T04:23:49.301Z,509.00
2023-02-27T07:07:34.708Z,546.00
2023-02-27T07:07:58.613Z,547.00
2023-02-27T07:09:02.403Z,547.00
2023-02-27T07:09:56.965Z,547.00
2023-02-27T07:10:55.970Z,547.00
2023-02-27T07:11:55.982Z,548.00
2023-02-27T07:12:55.985Z,550.00
2023-02-27T07:13:56.007Z,556.00
2023-02-27T07:14:56.010Z,552.00
2023-02-27T07:15:56.052Z,553.00
2023-02-27T07:16:56.014Z,550.00
2023-02-27T07:17:56.526Z,544.00
2023-02-27T07:18:56.027Z,549.00
2023-02-27T07:19:56.032Z,556.00
2023-02-27T07:20:56.026Z,559.00
2023-02-27T07:21:56.043Z,547.00
2023-02-27T07:22:56.048Z,551.00
2023-02-27T07:23:56.067Z,553.00
2023-02-27T07:24:56.065Z,551.00
2023-02-27T07:25:56.060Z,547.00
2023-02-27T07:26:56.060Z,544.00
2023-02-27T07:27:56.071Z,548.00
2023-02-27T07:28:56.060Z,554.00
2023-02-27T07:29:56.075Z,546.00
2023-02-27T07:30:56.117Z,552.00
2023-02-27T07:31:56.142Z,556.00
2023-02-27T07:32:56.189Z,546.00
2023-02-27T07:33:56.207Z,548.00
2023-02-27T07:34:56.233Z,550.00
2023-02-27T07:35:56.363Z,553.00
2023-02-27T07:36:56.293Z,545.00
2023-02-27T07:37:56.319Z,545.00
2023-02-27T07:38:56.358Z,545.00
2023-02-27T07:39:56.393Z,557.00
2023-02-27T07:40:56.441Z,550.00
2023-02-27T07:41:56.568Z,552.00
2023-02-27T07:42:56.489Z,548.00
2023-02-27T07:43:56.529Z,556.00
2023-02-27T07:44:56.561Z,549.00
2023-02-27T07:45:56.599Z,554.00
2023-02-27T07:47:56.675Z,546.00
2023-02-27T07:48:56.701Z,558.00
2023-02-27T07:49:56.741Z,547.00
2023-02-27T07:50:56.758Z,543.00
2023-02-27T07:51:56.866Z,554.00
2023-02-27T08:01:57.081Z,558.00
2023-02-27T10:15:01.380Z,2240.00
2023-02-27T12:05:05.956Z,1698.00
2023-02-27T12:06:06.057Z,1695.00
2023-02-27T12:07:06.106Z,1679.00
2023-02-27T12:08:06.170Z,1693.00
2023-02-27T12:09:06.234Z,1674.00
2023-02-27T12:10:06.309Z,1674.00
2023-02-27T12:12:06.432Z,1654.00
2023-02-27T12:34:07.885Z,1581.00
2023-02-27T12:35:07.944Z,1588.00
2023-02-27T12:36:08.012Z,1583.00
2023-02-27T12:37:08.058Z,1563.00
2023-02-27T12:38:08.091Z,1575.00
2023-02-27T12:39:08.137Z,1571.00
2023-02-27T12:40:08.186Z,1578.00
2023-02-27T12:54:08.524Z,1512.00
2023-02-27T12:55:08.530Z,1518.00
2023-02-27T12:56:08.555Z,1492.00
2023-02-27T12:57:08.599Z,1512.00
2023-02-27T12:58:08.658Z,1506.00
2023-02-27T12:59:08.703Z,1519.00
2023-02-27T13:00:08.716Z,1504.00
2023-02-27T13:01:08.959Z,1497.00
2023-02-27T13:02:08.740Z,1495.00
2023-02-27T13:03:08.853Z,1493.00
2023-02-27T13:04:08.824Z,1505.00
2023-02-27T13:05:08.837Z,1488.00
2023-02-27T13:06:08.840Z,1480.00
2023-02-27T13:07:09.158Z,1477.00
2023-02-27T13:08:08.908Z,1459.00
2023-02-27T13:09:08.985Z,1470.00
2023-02-27T13:10:08.924Z,1458.00
2023-02-27T13:11:08.960Z,1457.00
2023-02-27T13:12:08.986Z,1452.00
2023-02-27T13:13:09.785Z,1455.00
2023-02-27T13:14:09.011Z,1447.00
2023-02-27T13:15:09.158Z,1446.00
2023-02-27T13:16:09.083Z,1439.00
2023-02-27T13:17:09.083Z,1439.00
2023-02-27T13:18:09.235Z,1436.00
2023-02-27T13:19:09.134Z,1437.00
2023-02-27T13:20:09.161Z,1444.00
2023-02-27T13:21:09.169Z,1416.00
2023-02-27T13:22:09.204Z,1424.00
2023-02-27T13:23:09.318Z,1425.00
2023-02-27T17:36:15.943Z,930.00
2023-02-27T17:37:15.992Z,908.00
2023-02-27T17:38:16.038Z,909.00
2023-02-27T17:39:16.088Z,890.00
2023-02-27T17:40:16.206Z,895.00
2023-02-27T17:41:16.204Z,908.00
2023-02-27T17:42:16.257Z,909.00
2023-02-27T17:44:16.364Z,897.00
2023-02-27T17:45:16.420Z,890.00
2023-02-27T17:46:16.486Z,906.00
2023-02-27T17:47:16.523Z,900.00
2023-02-27T17:48:16.578Z,889.00
2023-02-27T17:49:16.638Z,894.00
2023-02-27T17:50:16.697Z,880.00
2023-02-27T17:51:16.730Z,887.00
2023-02-27T17:52:16.874Z,885.00
2023-02-27T17:53:16.840Z,867.00
2023-02-27T17:54:16.886Z,871.00
2023-02-27T17:55:16.944Z,894.00
2023-02-27T17:56:17.010Z,868.00
2023-02-27T17:57:17.036Z,873.00
2023-02-27T17:58:17.101Z,874.00
2023-02-27T17:59:17.159Z,877.00
2023-02-27T18:00:17.191Z,860.00
2023-02-27T20:20:26.302Z,658.00
2023-02-27T20:25:26.059Z,658.00
2023-02-27T20:26:26.427Z,654.00
2023-02-27T20:27:26.124Z,653.00
2023-02-27T20:28:26.211Z,654.00
2023-02-27T20:29:26.282Z,650.00
2023-02-27T20:30:26.336Z,653.00
2023-02-27T20:31:27.123Z,653.00
2023-02-27T20:32:26.595Z,654.00
2023-02-27T20:33:26.594Z,650.00
2023-02-27T20:34:26.692Z,646.00
2023-02-27T20:35:26.721Z,651.00
2023-02-27T20:42:27.212Z,642.00
2023-02-27T20:43:27.265Z,651.00
2023-02-27T20:44:27.346Z,642.00
2023-02-27T20:45:27.420Z,641.00
2023-02-27T20:46:27.510Z,642.00
2023-02-27T20:47:27.560Z,641.00
2023-02-27T20:48:27.632Z,646.00
2023-02-27T20:49:27.709Z,641.00
2023-02-27T20:50:27.779Z,638.00
2023-02-27T20:51:28.216Z,640.00
2023-02-27T20:52:27.937Z,640.00
2023-02-27T20:53:28.015Z,639.00
2023-02-27T20:54:28.093Z,640.00
2023-02-27T20:55:28.163Z,637.00
2023-02-27T20:56:28.314Z,635.00
2023-02-27T20:57:28.313Z,636.00
2023-02-27T20:58:28.387Z,635.00
2023-02-27T20:59:28.459Z,628.00
2023-02-27T21:00:28.530Z,635.00
2023-02-27T21:01:29.004Z,635.00
2023-02-27T21:02:28.671Z,634.00
2023-02-27T21:03:31.214Z,634.00
2023-02-27T21:05:28.771Z,635.00
2023-02-27T21:06:28.788Z,636.00
2023-02-27T21:07:28.811Z,635.00
2023-02-27T21:08:28.798Z,631.00
2023-02-27T21:10:28.807Z,632.00
2023-02-27T21:11:29.215Z,625.00
2023-02-27T21:12:28.896Z,630.00
2023-02-27T21:13:28.948Z,625.00
2023-02-27T21:14:29.011Z,633.00
2023-02-27T22:45:36.030Z,602.00
2023-02-27T22:46:36.958Z,603.00
2023-02-27T22:47:36.120Z,593.00
2023-02-27T22:48:36.212Z,594.00
2023-02-27T22:49:36.325Z,599.00
2023-02-27T22:50:36.353Z,596.00
2023-02-27T22:51:36.438Z,601.00
